sensor_id;sensor_type;location;lat;lon;timestamp;P1;durP1;ratioP1;P2;durP2;ratioP2
19780;SDS011;10050;55.492;13.506;2023-03-11T00:01:24;8.17;;;5.37;;
19780;SDS011;10050;55.492;13.506;2023-03-11T00:03:50;4.97;;;3.30;;
19780;SDS011;10050;55.492;13.506;2023-03-11T00:06:16;9.27;;;4.63;;
19780;SDS011;10050;55.492;13.506;2023-03-11T00:08:41;4.70;;;3.73;;
19780;SDS011;10050;55.492;13.506;2023-03-11T00:11:07;5.40;;;3.53;;
19780;SDS011;10050;55.492;13.506;2023-03-11T00:13:33;3.73;;;2.70;;
19780;SDS011;10050;55.492;13.506;2023-03-11T00:16:00;4.47;;;2.90;;
19780;SDS011;10050;55.492;13.506;2023-03-11T00:18:27;3.60;;;2.73;;
19780;SDS011;10050;55.492;13.506;2023-03-11T00:20:56;3.73;;;2.43;;
19780;SDS011;10050;55.492;13.506;2023-03-11T00:23:23;3.60;;;3.17;;
19780;SDS011;10050;55.492;13.506;2023-03-11T00:25:50;4.37;;;3.10;;
19780;SDS011;10050;55.492;13.506;2023-03-11T00:28:16;4.97;;;3.80;;
19780;SDS011;10050;55.492;13.506;2023-03-11T00:30:43;4.90;;;3.27;;
19780;SDS011;10050;55.492;13.506;2023-03-11T00:33:10;6.83;;;4.53;;
19780;SDS011;10050;55.492;13.506;2023-03-11T00:35:37;5.50;;;3.03;;
19780;SDS011;10050;55.492;13.506;2023-03-11T00:38:04;5.67;;;2.57;;
19780;SDS011;10050;55.492;13.506;2023-03-11T00:40:31;4.17;;;2.53;;
19780;SDS011;10050;55.492;13.506;2023-03-11T00:42:58;4.07;;;2.33;;
19780;SDS011;10050;55.492;13.506;2023-03-11T00:45:24;3.60;;;2.60;;
19780;SDS011;10050;55.492;13.506;2023-03-11T00:47:51;3.43;;;2.40;;
19780;SDS011;10050;55.492;13.506;2023-03-11T00:50:21;2.50;;;2.30;;
19780;SDS011;10050;55.492;13.506;2023-03-11T00:52:57;4.33;;;2.40;;
19780;SDS011;10050;55.492;13.506;2023-03-11T00:55:25;2.30;;;2.10;;
19780;SDS011;10050;55.492;13.506;2023-03-11T00:57:53;2.37;;;2.10;;
19780;SDS011;10050;55.492;13.506;2023-03-11T01:00:22;5.00;;;2.43;;
19780;SDS011;10050;55.492;13.506;2023-03-11T01:02:49;2.60;;;2.40;;
19780;SDS011;10050;55.492;13.506;2023-03-11T01:05:17;3.67;;;2.70;;
19780;SDS011;10050;55.492;13.506;2023-03-11T01:07:50;4.10;;;2.70;;
19780;SDS011;10050;55.492;13.506;2023-03-11T01:10:19;4.80;;;2.93;;
19780;SDS011;10050;55.492;13.506;2023-03-11T01:12:45;4.13;;;2.77;;
19780;SDS011;10050;55.492;13.506;2023-03-11T01:15:16;3.33;;;2.93;;
19780;SDS011;10050;55.492;13.506;2023-03-11T01:17:47;2.63;;;2.20;;
19780;SDS011;10050;55.492;13.506;2023-03-11T01:20:13;4.23;;;3.20;;
19780;SDS011;10050;55.492;13.506;2023-03-11T01:22:39;5.43;;;3.23;;
19780;SDS011;10050;55.492;13.506;2023-03-11T01:25:05;4.63;;;2.80;;
19780;SDS011;10050;55.492;13.506;2023-03-11T01:27:31;6.47;;;3.97;;
19780;SDS011;10050;55.492;13.506;2023-03-11T01:29:57;4.53;;;3.23;;
19780;SDS011;10050;55.492;13.506;2023-03-11T01:32:23;6.03;;;3.50;;
19780;SDS011;10050;55.492;13.506;2023-03-11T01:34:48;4.43;;;3.10;;
19780;SDS011;10050;55.492;13.506;2023-03-11T01:37:14;5.07;;;3.30;;
19780;SDS011;10050;55.492;13.506;2023-03-11T01:39:40;9.17;;;4.13;;
19780;SDS011;10050;55.492;13.506;2023-03-11T01:42:05;6.40;;;3.20;;
19780;SDS011;10050;55.492;13.506;2023-03-11T01:44:31;7.63;;;3.87;;
19780;SDS011;10050;55.492;13.506;2023-03-11T01:49:26;6.23;;;3.67;;
19780;SDS011;10050;55.492;13.506;2023-03-11T01:52:02;4.07;;;3.30;;
19780;SDS011;10050;55.492;13.506;2023-03-11T01:54:36;6.83;;;3.90;;
19780;SDS011;10050;55.492;13.506;2023-03-11T01:57:06;8.07;;;4.13;;
19780;SDS011;10050;55.492;13.506;2023-03-11T01:59:36;6.40;;;3.90;;
19780;SDS011;10050;55.492;13.506;2023-03-11T02:04:43;7.40;;;3.73;;
19780;SDS011;10050;55.492;13.506;2023-03-11T02:07:09;6.50;;;3.73;;
19780;SDS011;10050;55.492;13.506;2023-03-11T02:09:36;4.83;;;3.57;;
19780;SDS011;10050;55.492;13.506;2023-03-11T02:12:03;6.23;;;3.30;;
19780;SDS011;10050;55.492;13.506;2023-03-11T02:14:30;4.83;;;3.40;;
19780;SDS011;10050;55.492;13.506;2023-03-11T02:16:56;4.13;;;3.07;;
19780;SDS011;10050;55.492;13.506;2023-03-11T02:19:34;5.10;;;2.60;;
19780;SDS011;10050;55.492;13.506;2023-03-11T02:22:06;3.43;;;2.77;;
19780;SDS011;10050;55.492;13.506;2023-03-11T02:24:53;3.77;;;2.50;;
19780;SDS011;10050;55.492;13.506;2023-03-11T02:27:20;4.40;;;2.80;;
19780;SDS011;10050;55.492;13.506;2023-03-11T02:29:47;3.60;;;2.63;;
19780;SDS011;10050;55.492;13.506;2023-03-11T02:32:16;3.10;;;2.70;;
19780;SDS011;10050;55.492;13.506;2023-03-11T02:34:42;4.00;;;3.20;;
19780;SDS011;10050;55.492;13.506;2023-03-11T02:37:09;7.10;;;3.07;;
19780;SDS011;10050;55.492;13.506;2023-03-11T02:42:26;4.73;;;3.10;;
19780;SDS011;10050;55.492;13.506;2023-03-11T02:44:59;3.27;;;2.87;;
19780;SDS011;10050;55.492;13.506;2023-03-11T02:47:32;4.07;;;3.60;;
19780;SDS011;10050;55.492;13.506;2023-03-11T02:50:00;3.77;;;3.00;;
19780;SDS011;10050;55.492;13.506;2023-03-11T02:52:29;3.30;;;3.10;;
19780;SDS011;10050;55.492;13.506;2023-03-11T02:54:57;3.47;;;3.13;;
19780;SDS011;10050;55.492;13.506;2023-03-11T02:57:23;3.70;;;2.93;;
19780;SDS011;10050;55.492;13.506;2023-03-11T02:59:49;5.63;;;2.77;;
19780;SDS011;10050;55.492;13.506;2023-03-11T03:02:15;4.93;;;2.93;;
19780;SDS011;10050;55.492;13.506;2023-03-11T03:04:41;3.00;;;2.43;;
19780;SDS011;10050;55.492;13.506;2023-03-11T03:07:06;2.70;;;2.50;;
19780;SDS011;10050;55.492;13.506;2023-03-11T03:09:35;3.73;;;2.73;;
19780;SDS011;10050;55.492;13.506;2023-03-11T03:12:02;2.90;;;2.60;;
19780;SDS011;10050;55.492;13.506;2023-03-11T03:14:29;3.43;;;2.87;;
19780;SDS011;10050;55.492;13.506;2023-03-11T03:16:55;4.13;;;2.90;;
19780;SDS011;10050;55.492;13.506;2023-03-11T03:19:21;3.37;;;2.87;;
19780;SDS011;10050;55.492;13.506;2023-03-11T03:21:46;3.07;;;2.73;;
19780;SDS011;10050;55.492;13.506;2023-03-11T03:24:13;5.50;;;3.03;;
19780;SDS011;10050;55.492;13.506;2023-03-11T03:26:39;4.50;;;2.63;;
19780;SDS011;10050;55.492;13.506;2023-03-11T03:29:05;2.93;;;2.73;;
19780;SDS011;10050;55.492;13.506;2023-03-11T03:31:33;3.27;;;2.97;;
19780;SDS011;10050;55.492;13.506;2023-03-11T03:33:59;2.97;;;2.77;;
19780;SDS011;10050;55.492;13.506;2023-03-11T03:36:25;4.03;;;2.93;;
19780;SDS011;10050;55.492;13.506;2023-03-11T03:38:54;3.70;;;3.30;;
19780;SDS011;10050;55.492;13.506;2023-03-11T03:41:20;3.43;;;3.00;;
19780;SDS011;10050;55.492;13.506;2023-03-11T03:43:46;3.20;;;2.90;;
19780;SDS011;10050;55.492;13.506;2023-03-11T03:46:11;4.23;;;3.37;;
19780;SDS011;10050;55.492;13.506;2023-03-11T03:48:37;4.60;;;3.20;;
19780;SDS011;10050;55.492;13.506;2023-03-11T03:51:04;4.60;;;2.90;;
19780;SDS011;10050;55.492;13.506;2023-03-11T03:53:32;3.83;;;2.73;;
19780;SDS011;10050;55.492;13.506;2023-03-11T03:56:09;4.03;;;2.73;;
19780;SDS011;10050;55.492;13.506;2023-03-11T03:58:36;3.47;;;2.40;;
19780;SDS011;10050;55.492;13.506;2023-03-11T04:01:02;4.53;;;2.40;;
19780;SDS011;10050;55.492;13.506;2023-03-11T04:03:29;3.73;;;2.80;;
19780;SDS011;10050;55.492;13.506;2023-03-11T04:06:04;4.23;;;3.13;;
19780;SDS011;10050;55.492;13.506;2023-03-11T04:08:39;2.70;;;2.50;;
19780;SDS011;10050;55.492;13.506;2023-03-11T04:11:05;3.53;;;2.57;;
19780;SDS011;10050;55.492;13.506;2023-03-11T04:13:31;3.47;;;2.73;;
19780;SDS011;10050;55.492;13.506;2023-03-11T04:15:57;2.70;;;2.50;;
19780;SDS011;10050;55.492;13.506;2023-03-11T04:18:23;2.83;;;2.63;;
19780;SDS011;10050;55.492;13.506;2023-03-11T04:20:48;4.57;;;2.77;;
19780;SDS011;10050;55.492;13.506;2023-03-11T04:23:14;2.93;;;2.33;;
19780;SDS011;10050;55.492;13.506;2023-03-11T04:25:40;2.40;;;2.20;;
19780;SDS011;10050;55.492;13.506;2023-03-11T04:28:06;3.73;;;2.57;;
19780;SDS011;10050;55.492;13.506;2023-03-11T04:30:31;3.57;;;2.70;;
19780;SDS011;10050;55.492;13.506;2023-03-11T04:32:57;3.73;;;2.80;;
19780;SDS011;10050;55.492;13.506;2023-03-11T04:35:23;2.63;;;2.23;;
19780;SDS011;10050;55.492;13.506;2023-03-11T04:37:48;2.57;;;2.37;;
19780;SDS011;10050;55.492;13.506;2023-03-11T04:40:14;4.10;;;2.77;;
19780;SDS011;10050;55.492;13.506;2023-03-11T04:42:40;2.73;;;2.43;;
19780;SDS011;10050;55.492;13.506;2023-03-11T04:45:06;6.17;;;2.23;;
19780;SDS011;10050;55.492;13.506;2023-03-11T04:47:32;4.13;;;2.60;;
19780;SDS011;10050;55.492;13.506;2023-03-11T04:49:58;2.53;;;2.33;;
19780;SDS011;10050;55.492;13.506;2023-03-11T04:52:23;2.47;;;2.27;;
19780;SDS011;10050;55.492;13.506;2023-03-11T04:54:49;3.30;;;2.63;;
19780;SDS011;10050;55.492;13.506;2023-03-11T04:57:15;3.17;;;2.53;;
19780;SDS011;10050;55.492;13.506;2023-03-11T04:59:40;2.80;;;2.60;;
19780;SDS011;10050;55.492;13.506;2023-03-11T05:02:06;3.17;;;2.73;;
19780;SDS011;10050;55.492;13.506;2023-03-11T05:04:32;2.97;;;2.67;;
19780;SDS011;10050;55.492;13.506;2023-03-11T05:07:00;4.60;;;2.40;;
19780;SDS011;10050;55.492;13.506;2023-03-11T05:09:25;3.27;;;2.70;;
19780;SDS011;10050;55.492;13.506;2023-03-11T05:11:51;3.23;;;2.93;;
19780;SDS011;10050;55.492;13.506;2023-03-11T05:14:17;5.63;;;2.90;;
19780;SDS011;10050;55.492;13.506;2023-03-11T05:16:42;3.43;;;2.97;;
19780;SDS011;10050;55.492;13.506;2023-03-11T05:19:08;3.20;;;2.90;;
19780;SDS011;10050;55.492;13.506;2023-03-11T05:21:53;3.30;;;2.20;;
19780;SDS011;10050;55.492;13.506;2023-03-11T05:24:18;4.73;;;2.37;;
19780;SDS011;10050;55.492;13.506;2023-03-11T05:26:44;4.40;;;2.87;;
19780;SDS011;10050;55.492;13.506;2023-03-11T05:29:10;3.60;;;2.47;;
19780;SDS011;10050;55.492;13.506;2023-03-11T05:31:35;3.40;;;2.43;;
19780;SDS011;10050;55.492;13.506;2023-03-11T05:34:01;2.77;;;2.57;;
19780;SDS011;10050;55.492;13.506;2023-03-11T05:36:27;3.00;;;2.70;;
19780;SDS011;10050;55.492;13.506;2023-03-11T05:38:53;5.87;;;3.57;;
19780;SDS011;10050;55.492;13.506;2023-03-11T05:41:18;3.20;;;2.90;;
19780;SDS011;10050;55.492;13.506;2023-03-11T05:43:45;3.53;;;3.20;;
19780;SDS011;10050;55.492;13.506;2023-03-11T05:46:10;3.63;;;2.53;;
19780;SDS011;10050;55.492;13.506;2023-03-11T05:48:37;4.60;;;3.07;;
19780;SDS011;10050;55.492;13.506;2023-03-11T05:51:06;5.10;;;2.93;;
19780;SDS011;10050;55.492;13.506;2023-03-11T05:53:35;3.77;;;2.63;;
19780;SDS011;10050;55.492;13.506;2023-03-11T05:56:01;4.23;;;3.27;;
19780;SDS011;10050;55.492;13.506;2023-03-11T05:58:28;4.20;;;3.10;;
19780;SDS011;10050;55.492;13.506;2023-03-11T06:00:54;3.50;;;3.07;;
19780;SDS011;10050;55.492;13.506;2023-03-11T06:03:22;3.50;;;3.10;;
19780;SDS011;10050;55.492;13.506;2023-03-11T06:05:48;3.13;;;2.83;;
19780;SDS011;10050;55.492;13.506;2023-03-11T06:08:15;3.93;;;2.90;;
19780;SDS011;10050;55.492;13.506;2023-03-11T06:10:41;3.70;;;3.40;;
19780;SDS011;10050;55.492;13.506;2023-03-11T06:13:07;5.13;;;2.97;;
19780;SDS011;10050;55.492;13.506;2023-03-11T06:15:34;4.50;;;3.20;;
19780;SDS011;10050;55.492;13.506;2023-03-11T06:18:01;2.70;;;2.50;;
19780;SDS011;10050;55.492;13.506;2023-03-11T06:20:27;3.30;;;3.00;;
19780;SDS011;10050;55.492;13.506;2023-03-11T06:22:53;5.37;;;3.13;;
19780;SDS011;10050;55.492;13.506;2023-03-11T06:25:18;6.80;;;3.33;;
19780;SDS011;10050;55.492;13.506;2023-03-11T06:27:47;4.50;;;3.20;;
19780;SDS011;10050;55.492;13.506;2023-03-11T06:30:15;4.10;;;3.13;;
19780;SDS011;10050;55.492;13.506;2023-03-11T06:32:44;3.23;;;2.93;;
19780;SDS011;10050;55.492;13.506;2023-03-11T06:35:11;3.70;;;3.00;;
19780;SDS011;10050;55.492;13.506;2023-03-11T06:37:40;3.40;;;3.10;;
19780;SDS011;10050;55.492;13.506;2023-03-11T06:40:08;3.40;;;2.77;;
19780;SDS011;10050;55.492;13.506;2023-03-11T06:42:36;5.00;;;3.13;;
19780;SDS011;10050;55.492;13.506;2023-03-11T06:45:02;6.40;;;3.13;;
19780;SDS011;10050;55.492;13.506;2023-03-11T06:47:28;3.93;;;3.13;;
19780;SDS011;10050;55.492;13.506;2023-03-11T06:49:53;4.33;;;3.03;;
19780;SDS011;10050;55.492;13.506;2023-03-11T06:52:19;2.97;;;2.67;;
19780;SDS011;10050;55.492;13.506;2023-03-11T06:54:45;3.80;;;2.77;;
19780;SDS011;10050;55.492;13.506;2023-03-11T06:57:11;4.73;;;2.83;;
19780;SDS011;10050;55.492;13.506;2023-03-11T06:59:37;3.60;;;2.97;;
19780;SDS011;10050;55.492;13.506;2023-03-11T07:02:05;3.50;;;2.60;;
19780;SDS011;10050;55.492;13.506;2023-03-11T07:04:32;3.83;;;2.63;;
19780;SDS011;10050;55.492;13.506;2023-03-11T07:06:57;3.43;;;3.03;;
19780;SDS011;10050;55.492;13.506;2023-03-11T07:09:24;2.97;;;2.77;;
19780;SDS011;10050;55.492;13.506;2023-03-11T07:11:52;2.97;;;2.77;;
19780;SDS011;10050;55.492;13.506;2023-03-11T07:14:19;3.07;;;2.83;;
19780;SDS011;10050;55.492;13.506;2023-03-11T07:16:45;3.80;;;3.07;;
19780;SDS011;10050;55.492;13.506;2023-03-11T07:19:11;3.03;;;2.63;;
19780;SDS011;10050;55.492;13.506;2023-03-11T07:21:37;3.40;;;3.00;;
19780;SDS011;10050;55.492;13.506;2023-03-11T07:24:03;3.87;;;2.80;;
19780;SDS011;10050;55.492;13.506;2023-03-11T07:26:30;3.40;;;2.87;;
19780;SDS011;10050;55.492;13.506;2023-03-11T07:28:57;3.13;;;2.60;;
19780;SDS011;10050;55.492;13.506;2023-03-11T07:31:24;4.63;;;2.63;;
19780;SDS011;10050;55.492;13.506;2023-03-11T07:33:52;2.97;;;2.70;;
19780;SDS011;10050;55.492;13.506;2023-03-11T07:36:20;3.37;;;3.00;;
19780;SDS011;10050;55.492;13.506;2023-03-11T07:38:48;3.10;;;2.33;;
19780;SDS011;10050;55.492;13.506;2023-03-11T07:41:18;3.17;;;2.87;;
19780;SDS011;10050;55.492;13.506;2023-03-11T07:43:44;2.80;;;2.33;;
19780;SDS011;10050;55.492;13.506;2023-03-11T07:46:11;3.47;;;2.47;;
19780;SDS011;10050;55.492;13.506;2023-03-11T07:48:40;2.37;;;2.17;;
19780;SDS011;10050;55.492;13.506;2023-03-11T07:51:08;2.23;;;2.03;;
19780;SDS011;10050;55.492;13.506;2023-03-11T07:53:39;3.43;;;2.57;;
19780;SDS011;10050;55.492;13.506;2023-03-11T07:56:04;3.20;;;2.10;;
19780;SDS011;10050;55.492;13.506;2023-03-11T07:58:31;2.53;;;2.27;;
19780;SDS011;10050;55.492;13.506;2023-03-11T08:01:02;2.37;;;2.17;;
19780;SDS011;10050;55.492;13.506;2023-03-11T08:03:33;2.50;;;2.30;;
19780;SDS011;10050;55.492;13.506;2023-03-11T08:05:59;2.03;;;1.93;;
19780;SDS011;10050;55.492;13.506;2023-03-11T08:08:25;2.53;;;2.27;;
19780;SDS011;10050;55.492;13.506;2023-03-11T08:10:51;2.10;;;1.90;;
19780;SDS011;10050;55.492;13.506;2023-03-11T08:13:17;2.40;;;1.93;;
19780;SDS011;10050;55.492;13.506;2023-03-11T08:15:43;2.43;;;2.23;;
19780;SDS011;10050;55.492;13.506;2023-03-11T08:18:09;3.87;;;2.10;;
19780;SDS011;10050;55.492;13.506;2023-03-11T08:20:38;3.27;;;2.30;;
19780;SDS011;10050;55.492;13.506;2023-03-11T08:23:04;2.30;;;1.70;;
19780;SDS011;10050;55.492;13.506;2023-03-11T08:25:30;2.87;;;2.20;;
19780;SDS011;10050;55.492;13.506;2023-03-11T08:27:55;1.90;;;1.80;;
19780;SDS011;10050;55.492;13.506;2023-03-11T08:30:21;3.13;;;2.20;;
19780;SDS011;10050;55.492;13.506;2023-03-11T08:32:47;2.10;;;1.90;;
19780;SDS011;10050;55.492;13.506;2023-03-11T08:35:13;2.03;;;1.93;;
19780;SDS011;10050;55.492;13.506;2023-03-11T08:37:40;2.30;;;2.07;;
19780;SDS011;10050;55.492;13.506;2023-03-11T08:40:05;2.23;;;2.03;;
19780;SDS011;10050;55.492;13.506;2023-03-11T08:42:34;2.20;;;2.00;;
19780;SDS011;10050;55.492;13.506;2023-03-11T08:45:00;2.37;;;2.10;;
19780;SDS011;10050;55.492;13.506;2023-03-11T08:47:25;2.77;;;2.10;;
19780;SDS011;10050;55.492;13.506;2023-03-11T08:49:51;2.50;;;2.30;;
19780;SDS011;10050;55.492;13.506;2023-03-11T08:52:17;2.40;;;2.20;;
19780;SDS011;10050;55.492;13.506;2023-03-11T08:54:42;2.67;;;2.20;;
19780;SDS011;10050;55.492;13.506;2023-03-11T08:57:08;2.83;;;2.50;;
19780;SDS011;10050;55.492;13.506;2023-03-11T08:59:34;2.00;;;1.90;;
19780;SDS011;10050;55.492;13.506;2023-03-11T09:02:00;2.87;;;2.20;;
19780;SDS011;10050;55.492;13.506;2023-03-11T09:04:25;3.30;;;2.53;;
19780;SDS011;10050;55.492;13.506;2023-03-11T09:06:51;4.53;;;2.60;;
19780;SDS011;10050;55.492;13.506;2023-03-11T09:09:17;3.40;;;2.50;;
19780;SDS011;10050;55.492;13.506;2023-03-11T09:11:44;2.50;;;2.30;;
19780;SDS011;10050;55.492;13.506;2023-03-11T09:14:11;2.50;;;2.30;;
19780;SDS011;10050;55.492;13.506;2023-03-11T09:16:37;3.07;;;2.37;;
19780;SDS011;10050;55.492;13.506;2023-03-11T09:19:03;3.17;;;2.60;;
19780;SDS011;10050;55.492;13.506;2023-03-11T09:21:31;2.00;;;1.87;;
19780;SDS011;10050;55.492;13.506;2023-03-11T09:23:58;3.07;;;2.37;;
19780;SDS011;10050;55.492;13.506;2023-03-11T09:26:24;4.07;;;2.30;;
19780;SDS011;10050;55.492;13.506;2023-03-11T09:28:50;2.60;;;2.40;;
19780;SDS011;10050;55.492;13.506;2023-03-11T09:31:16;3.23;;;2.23;;
19780;SDS011;10050;55.492;13.506;2023-03-11T09:33:44;3.10;;;2.47;;
19780;SDS011;10050;55.492;13.506;2023-03-11T09:36:11;2.70;;;2.47;;
19780;SDS011;10050;55.492;13.506;2023-03-11T09:38:42;3.60;;;2.70;;
19780;SDS011;10050;55.492;13.506;2023-03-11T09:41:18;3.73;;;2.60;;
19780;SDS011;10050;55.492;13.506;2023-03-11T09:51:37;2.77;;;2.43;;
19780;SDS011;10050;55.492;13.506;2023-03-11T09:54:10;3.47;;;2.47;;
19780;SDS011;10050;55.492;13.506;2023-03-11T09:56:37;2.40;;;2.20;;
19780;SDS011;10050;55.492;13.506;2023-03-11T10:01:40;2.67;;;2.47;;
19780;SDS011;10050;55.492;13.506;2023-03-11T10:06:34;4.87;;;3.83;;
19780;SDS011;10050;55.492;13.506;2023-03-11T10:23:14;2.60;;;2.33;;
19780;SDS011;10050;55.492;13.506;2023-03-11T10:26:13;2.80;;;2.37;;
19780;SDS011;10050;55.492;13.506;2023-03-11T10:28:45;2.83;;;2.43;;
19780;SDS011;10050;55.492;13.506;2023-03-11T10:31:26;2.60;;;2.20;;
19780;SDS011;10050;55.492;13.506;2023-03-11T10:34:03;2.70;;;2.50;;
19780;SDS011;10050;55.492;13.506;2023-03-11T10:37:25;2.57;;;2.33;;
19780;SDS011;10050;55.492;13.506;2023-03-11T10:39:31;2.57;;;2.40;;
19780;SDS011;10050;55.492;13.506;2023-03-11T10:42:04;2.60;;;2.40;;
19780;SDS011;10050;55.492;13.506;2023-03-11T10:44:35;6.60;;;2.43;;
19780;SDS011;10050;55.492;13.506;2023-03-11T10:47:03;2.90;;;2.70;;
19780;SDS011;10050;55.492;13.506;2023-03-11T10:49:30;2.53;;;2.33;;
19780;SDS011;10050;55.492;13.506;2023-03-11T10:51:56;2.37;;;2.17;;
19780;SDS011;10050;55.492;13.506;2023-03-11T10:54:27;2.87;;;2.20;;
19780;SDS011;10050;55.492;13.506;2023-03-11T10:56:59;2.77;;;2.40;;
19780;SDS011;10050;55.492;13.506;2023-03-11T11:02:01;2.40;;;2.20;;
19780;SDS011;10050;55.492;13.506;2023-03-11T11:04:43;3.43;;;1.97;;
19780;SDS011;10050;55.492;13.506;2023-03-11T11:07:19;2.40;;;2.03;;
19780;SDS011;10050;55.492;13.506;2023-03-11T11:15:51;2.67;;;1.97;;
19780;SDS011;10050;55.492;13.506;2023-03-11T11:20:57;3.33;;;1.90;;
19780;SDS011;10050;55.492;13.506;2023-03-11T11:23:33;3.03;;;2.13;;
19780;SDS011;10050;55.492;13.506;2023-03-11T11:26:12;2.13;;;1.50;;
19780;SDS011;10050;55.492;13.506;2023-03-11T11:28:44;1.90;;;1.80;;
19780;SDS011;10050;55.492;13.506;2023-03-11T11:31:23;1.50;;;1.40;;
19780;SDS011;10050;55.492;13.506;2023-03-11T11:33:51;3.40;;;1.70;;
19780;SDS011;10050;55.492;13.506;2023-03-11T11:36:22;2.67;;;1.47;;
19780;SDS011;10050;55.492;13.506;2023-03-11T11:38:53;4.17;;;1.90;;
19780;SDS011;10050;55.492;13.506;2023-03-11T11:41:20;2.83;;;1.53;;
19780;SDS011;10050;55.492;13.506;2023-03-11T11:43:54;3.97;;;1.40;;
19780;SDS011;10050;55.492;13.506;2023-03-11T11:49:24;1.27;;;1.10;;
19780;SDS011;10050;55.492;13.506;2023-03-11T11:52:07;1.33;;;1.23;;
19780;SDS011;10050;55.492;13.506;2023-03-11T11:57:19;2.60;;;1.20;;
19780;SDS011;10050;55.492;13.506;2023-03-11T11:59:47;1.23;;;1.20;;
19780;SDS011;10050;55.492;13.506;2023-03-11T12:02:26;1.07;;;1.07;;
19780;SDS011;10050;55.492;13.506;2023-03-11T12:05:04;1.47;;;1.37;;
19780;SDS011;10050;55.492;13.506;2023-03-11T12:08:44;1.10;;;1.10;;
19780;SDS011;10050;55.492;13.506;2023-03-11T12:11:00;1.03;;;1.00;;
19780;SDS011;10050;55.492;13.506;2023-03-11T12:16:56;1.20;;;1.20;;
19780;SDS011;10050;55.492;13.506;2023-03-11T12:19:29;1.20;;;1.07;;
19780;SDS011;10050;55.492;13.506;2023-03-11T12:29:48;1.23;;;1.00;;
19780;SDS011;10050;55.492;13.506;2023-03-11T12:32:29;1.70;;;1.10;;
19780;SDS011;10050;55.492;13.506;2023-03-11T12:35:30;2.00;;;1.10;;
19780;SDS011;10050;55.492;13.506;2023-03-11T12:40:47;1.43;;;1.33;;
19780;SDS011;10050;55.492;13.506;2023-03-11T12:46:11;1.20;;;1.20;;
19780;SDS011;10050;55.492;13.506;2023-03-11T12:51:20;2.27;;;1.20;;
19780;SDS011;10050;55.492;13.506;2023-03-11T12:53:58;1.23;;;1.17;;
19780;SDS011;10050;55.492;13.506;2023-03-11T12:57:04;3.67;;;1.57;;
19780;SDS011;10050;55.492;13.506;2023-03-11T13:10:45;1.80;;;1.30;;
19780;SDS011;10050;55.492;13.506;2023-03-11T13:18:37;2.20;;;1.30;;
19780;SDS011;10050;55.492;13.506;2023-03-11T13:23:51;1.20;;;1.17;;
19780;SDS011;10050;55.492;13.506;2023-03-11T13:26:42;1.40;;;1.30;;
19780;SDS011;10050;55.492;13.506;2023-03-11T13:29:22;1.67;;;1.27;;
19780;SDS011;10050;55.492;13.506;2023-03-11T13:34:27;1.70;;;1.60;;
19780;SDS011;10050;55.492;13.506;2023-03-11T13:37:10;3.10;;;1.73;;
19780;SDS011;10050;55.492;13.506;2023-03-11T13:42:49;1.77;;;1.33;;
19780;SDS011;10050;55.492;13.506;2023-03-11T13:45:32;1.37;;;1.30;;
19780;SDS011;10050;55.492;13.506;2023-03-11T13:48:19;1.93;;;1.30;;
19780;SDS011;10050;55.492;13.506;2023-03-11T13:51:03;1.60;;;1.50;;
19780;SDS011;10050;55.492;13.506;2023-03-11T13:53:38;1.37;;;1.20;;
19780;SDS011;10050;55.492;13.506;2023-03-11T13:56:17;1.40;;;1.30;;
19780;SDS011;10050;55.492;13.506;2023-03-11T13:58:49;1.33;;;1.23;;
19780;SDS011;10050;55.492;13.506;2023-03-11T14:01:15;1.37;;;1.27;;
19780;SDS011;10050;55.492;13.506;2023-03-11T14:03:43;1.40;;;1.30;;
19780;SDS011;10050;55.492;13.506;2023-03-11T14:06:19;2.83;;;1.40;;
19780;SDS011;10050;55.492;13.506;2023-03-11T14:08:51;1.50;;;1.40;;
19780;SDS011;10050;55.492;13.506;2023-03-11T14:11:19;1.47;;;1.30;;
19780;SDS011;10050;55.492;13.506;2023-03-11T14:13:51;1.17;;;1.07;;
19780;SDS011;10050;55.492;13.506;2023-03-11T14:21:36;2.93;;;1.30;;
19780;SDS011;10050;55.492;13.506;2023-03-11T14:24:13;1.30;;;1.20;;
19780;SDS011;10050;55.492;13.506;2023-03-11T14:26:55;1.10;;;1.10;;
19780;SDS011;10050;55.492;13.506;2023-03-11T14:29:31;1.33;;;1.23;;
19780;SDS011;10050;55.492;13.506;2023-03-11T14:31:59;1.03;;;0.90;;
19780;SDS011;10050;55.492;13.506;2023-03-11T14:34:26;1.43;;;1.00;;
19780;SDS011;10050;55.492;13.506;2023-03-11T14:36:55;1.10;;;1.10;;
19780;SDS011;10050;55.492;13.506;2023-03-11T14:39:24;1.33;;;1.20;;
19780;SDS011;10050;55.492;13.506;2023-03-11T14:41:54;1.13;;;1.10;;
19780;SDS011;10050;55.492;13.506;2023-03-11T14:44:23;3.70;;;1.30;;
19780;SDS011;10050;55.492;13.506;2023-03-11T14:46:50;3.50;;;1.10;;
19780;SDS011;10050;55.492;13.506;2023-03-11T14:49:28;2.70;;;1.07;;
19780;SDS011;10050;55.492;13.506;2023-03-11T14:51:57;1.20;;;1.20;;
19780;SDS011;10050;55.492;13.506;2023-03-11T14:54:30;2.00;;;1.37;;
19780;SDS011;10050;55.492;13.506;2023-03-11T14:57:01;1.70;;;1.07;;
19780;SDS011;10050;55.492;13.506;2023-03-11T14:59:28;2.30;;;1.10;;
19780;SDS011;10050;55.492;13.506;2023-03-11T15:02:04;1.17;;;1.07;;
19780;SDS011;10050;55.492;13.506;2023-03-11T15:04:51;1.73;;;1.40;;
19780;SDS011;10050;55.492;13.506;2023-03-11T15:07:19;2.40;;;1.20;;
19780;SDS011;10050;55.492;13.506;2023-03-11T15:09:45;1.20;;;1.20;;
19780;SDS011;10050;55.492;13.506;2023-03-11T15:12:31;2.03;;;1.30;;
19780;SDS011;10050;55.492;13.506;2023-03-11T15:14:59;2.60;;;1.20;;
19780;SDS011;10050;55.492;13.506;2023-03-11T15:17:25;1.20;;;1.10;;
19780;SDS011;10050;55.492;13.506;2023-03-11T15:19:58;2.07;;;1.10;;
19780;SDS011;10050;55.492;13.506;2023-03-11T15:24:56;1.50;;;1.40;;
19780;SDS011;10050;55.492;13.506;2023-03-11T15:27:27;2.63;;;0.93;;
19780;SDS011;10050;55.492;13.506;2023-03-11T15:29:58;1.53;;;1.20;;
19780;SDS011;10050;55.492;13.506;2023-03-11T15:37:31;1.40;;;1.30;;
19780;SDS011;10050;55.492;13.506;2023-03-11T15:40:09;2.20;;;1.80;;
19780;SDS011;10050;55.492;13.506;2023-03-11T15:42:46;7.60;;;5.53;;
19780;SDS011;10050;55.492;13.506;2023-03-11T15:45:14;1.43;;;1.43;;
19780;SDS011;10050;55.492;13.506;2023-03-11T15:47:45;3.40;;;3.10;;
19780;SDS011;10050;55.492;13.506;2023-03-11T15:50:16;3.77;;;3.37;;
19780;SDS011;10050;55.492;13.506;2023-03-11T15:52:45;3.17;;;2.87;;
19780;SDS011;10050;55.492;13.506;2023-03-11T15:55:12;4.53;;;4.23;;
19780;SDS011;10050;55.492;13.506;2023-03-11T15:57:37;1.60;;;1.50;;
19780;SDS011;10050;55.492;13.506;2023-03-11T16:00:06;2.20;;;1.97;;
19780;SDS011;10050;55.492;13.506;2023-03-11T16:02:44;2.67;;;1.40;;
19780;SDS011;10050;55.492;13.506;2023-03-11T16:05:11;1.90;;;1.70;;
19780;SDS011;10050;55.492;13.506;2023-03-11T16:07:38;1.93;;;1.23;;
19780;SDS011;10050;55.492;13.506;2023-03-11T16:10:05;1.20;;;1.20;;
19780;SDS011;10050;55.492;13.506;2023-03-11T16:12:32;4.30;;;2.10;;
19780;SDS011;10050;55.492;13.506;2023-03-11T16:14:57;1.57;;;1.47;;
19780;SDS011;10050;55.492;13.506;2023-03-11T16:17:23;3.47;;;1.73;;
19780;SDS011;10050;55.492;13.506;2023-03-11T16:19:49;2.00;;;1.90;;
19780;SDS011;10050;55.492;13.506;2023-03-11T16:22:15;3.83;;;1.80;;
19780;SDS011;10050;55.492;13.506;2023-03-11T16:24:44;3.50;;;1.67;;
19780;SDS011;10050;55.492;13.506;2023-03-11T16:27:14;3.10;;;1.70;;
19780;SDS011;10050;55.492;13.506;2023-03-11T16:29:42;2.43;;;1.70;;
19780;SDS011;10050;55.492;13.506;2023-03-11T16:32:08;2.20;;;1.80;;
19780;SDS011;10050;55.492;13.506;2023-03-11T16:34:36;2.53;;;1.77;;